Portada
METAR-TAF:

METAR-TAF

Aeroports :

Somerset Airport

Somerville, Nova Jersey, Estats Units d'Amèrica

latitud: 40-37-26N, longitud: 074-40-10W, altitud: 32 m

Observació

L'informe es va fer fa 29 minuts, a les 16:53 UTC
Vent 5 kt amb direcció variable
Temperatura 10°C
Humitat 43%
Pressió 1017 hPa
Visibilitat: 16.1 km
Cel clar

METAR: KSMQ 241653Z AUTO VRB05KT 10SM CLR 10/M02 A3002 RMK AO2 SLP167 T01001017 $

Hora: 12:22 (17:22 UTC)


TAF: manca

Observacions i pronòstics meteorològics de més de 4000 aeroports (METAR i TAF).

Les estacions disponibles són els punts grocs i vermells al mapa.

Posi el ratolí al punt desitjat per veure el nom de l'estació.

Feu clic per veure les observacions i els pronòstics meteorològics.

Per canviar el mapa: feu clic els botons verds amb una creu de color negre per apropar; al botó verd amb un guió per allunyar la imatge; o en les fletxes verdes per a mapes adjacents.


METAR-TAF: